sensor_id;sensor_type;location;lat;lon;timestamp;pressure;altitude;pressure_sealevel;temperature;humidity
55456;BME280;63021;52.836;6.376;2023-02-26T00:00:57;102039.69;;;0.21;65.01
55456;BME280;63021;52.836;6.376;2023-02-26T00:03:25;102043.13;;;0.21;65.17
55456;BME280;63021;52.836;6.376;2023-02-26T00:05:53;102058.81;;;0.23;64.53
55456;BME280;63021;52.836;6.376;2023-02-26T00:08:18;102056.06;;;0.26;64.45
55456;BME280;63021;52.836;6.376;2023-02-26T00:10:44;102041.78;;;0.09;64.74
55456;BME280;63021;52.836;6.376;2023-02-26T00:13:21;102074.50;;;0.23;64.68
55456;BME280;63021;52.836;6.376;2023-02-26T00:15:49;102072.91;;;0.19;64.53
55456;BME280;63021;52.836;6.376;2023-02-26T00:18:19;102049.78;;;0.05;64.12
55456;BME280;63021;52.836;6.376;2023-02-26T00:20:44;102067.91;;;0.11;64.82
55456;BME280;63021;52.836;6.376;2023-02-26T00:23:13;102068.88;;;0.08;64.84
55456;BME280;63021;52.836;6.376;2023-02-26T00:25:39;102086.25;;;0.11;64.50
55456;BME280;63021;52.836;6.376;2023-02-26T00:28:08;102087.19;;;0.08;64.28
55456;BME280;63021;52.836;6.376;2023-02-26T00:30:34;102084.72;;;0.04;64.14
55456;BME280;63021;52.836;6.376;2023-02-26T00:33:01;102087.59;;;-0.04;64.90
55456;BME280;63021;52.836;6.376;2023-02-26T00:35:27;102092.78;;;-0.03;64.50
55456;BME280;63021;52.836;6.376;2023-02-26T00:38:09;102099.81;;;-0.05;64.29
55456;BME280;63021;52.836;6.376;2023-02-26T00:40:46;102099.97;;;-0.09;64.71
55456;BME280;63021;52.836;6.376;2023-02-26T00:43:16;102097.53;;;-0.15;64.37
55456;BME280;63021;52.836;6.376;2023-02-26T00:56:19;102111.88;;;-0.29;64.69
55456;BME280;63021;52.836;6.376;2023-02-26T00:58:44;102121.53;;;-0.31;64.59
55456;BME280;63021;52.836;6.376;2023-02-26T01:01:09;102106.94;;;-0.38;64.12
55456;BME280;63021;52.836;6.376;2023-02-26T01:03:35;102123.34;;;-0.33;64.15
55456;BME280;63021;52.836;6.376;2023-02-26T01:06:01;102125.19;;;-0.37;64.43
55456;BME280;63021;52.836;6.376;2023-02-26T01:08:33;102121.69;;;-0.36;64.63
55456;BME280;63021;52.836;6.376;2023-02-26T01:11:02;102120.00;;;-0.38;64.24
55456;BME280;63021;52.836;6.376;2023-02-26T01:13:27;102127.84;;;-0.38;64.52
55456;BME280;63021;52.836;6.376;2023-02-26T01:15:58;102122.66;;;-0.40;64.17
55456;BME280;63021;52.836;6.376;2023-02-26T01:18:32;102126.19;;;-0.41;64.05
55456;BME280;63021;52.836;6.376;2023-02-26T01:21:03;102131.47;;;-0.42;64.38
55456;BME280;63021;52.836;6.376;2023-02-26T01:23:37;102141.97;;;-0.44;63.58
55456;BME280;63021;52.836;6.376;2023-02-26T01:26:14;102147.22;;;-0.44;64.21
55456;BME280;63021;52.836;6.376;2023-02-26T01:28:40;102165.66;;;-0.48;63.66
55456;BME280;63021;52.836;6.376;2023-02-26T01:31:15;102154.50;;;-0.55;64.07
55456;BME280;63021;52.836;6.376;2023-02-26T01:33:46;102149.97;;;-0.48;64.19
55456;BME280;63021;52.836;6.376;2023-02-26T01:36:23;102150.06;;;-0.51;64.08
55456;BME280;63021;52.836;6.376;2023-02-26T01:39:11;102145.66;;;-0.51;63.39
55456;BME280;63021;52.836;6.376;2023-02-26T01:41:47;102147.53;;;-0.55;63.36
55456;BME280;63021;52.836;6.376;2023-02-26T01:44:39;102152.75;;;-0.55;63.73
55456;BME280;63021;52.836;6.376;2023-02-26T01:47:20;102168.47;;;-0.56;63.70
55456;BME280;63021;52.836;6.376;2023-02-26T01:49:48;102156.31;;;-0.57;63.28
55456;BME280;63021;52.836;6.376;2023-02-26T01:55:24;102159.88;;;-0.60;63.05
55456;BME280;63021;52.836;6.376;2023-02-26T01:57:52;102159.94;;;-0.63;63.55
55456;BME280;63021;52.836;6.376;2023-02-26T02:00:20;102159.94;;;-0.63;62.96
55456;BME280;63021;52.836;6.376;2023-02-26T02:02:46;102162.53;;;-0.61;62.76
55456;BME280;63021;52.836;6.376;2023-02-26T02:05:32;102164.25;;;-0.62;62.87
55456;BME280;63021;52.836;6.376;2023-02-26T02:07:59;102161.94;;;-0.73;62.92
55456;BME280;63021;52.836;6.376;2023-02-26T02:10:26;102198.34;;;-0.65;62.95
55456;BME280;63021;52.836;6.376;2023-02-26T02:12:55;102184.41;;;-0.65;62.68
55456;BME280;63021;52.836;6.376;2023-02-26T02:15:36;102183.56;;;-0.66;63.13
55456;BME280;63021;52.836;6.376;2023-02-26T02:18:11;102174.91;;;-0.68;63.17
55456;BME280;63021;52.836;6.376;2023-02-26T02:23:55;102188.16;;;-0.74;62.71
55456;BME280;63021;52.836;6.376;2023-02-26T02:31:59;102190.97;;;-0.83;62.82
55456;BME280;63021;52.836;6.376;2023-02-26T02:34:35;102185.84;;;-0.87;62.73
55456;BME280;63021;52.836;6.376;2023-02-26T02:37:12;102188.53;;;-0.90;62.53
55456;BME280;63021;52.836;6.376;2023-02-26T02:39:53;102191.19;;;-0.91;63.10
55456;BME280;63021;52.836;6.376;2023-02-26T02:42:32;102197.34;;;-0.94;62.69
55456;BME280;63021;52.836;6.376;2023-02-26T02:47:42;102231.50;;;-1.00;63.08
55456;BME280;63021;52.836;6.376;2023-02-26T02:50:33;102206.34;;;-1.04;62.56
55456;BME280;63021;52.836;6.376;2023-02-26T02:53:19;102216.66;;;-0.99;62.54
55456;BME280;63021;52.836;6.376;2023-02-26T02:56:07;102228.88;;;-1.00;62.89
55456;BME280;63021;52.836;6.376;2023-02-26T02:58:38;102235.88;;;-1.00;62.99
55456;BME280;63021;52.836;6.376;2023-02-26T03:01:08;102241.13;;;-1.00;62.91
55456;BME280;63021;52.836;6.376;2023-02-26T03:06:09;102258.69;;;-1.07;62.99
55456;BME280;63021;52.836;6.376;2023-02-26T03:08:39;102239.50;;;-1.06;63.50
55456;BME280;63021;52.836;6.376;2023-02-26T03:11:08;102245.72;;;-1.12;63.55
55456;BME280;63021;52.836;6.376;2023-02-26T03:13:34;102250.09;;;-1.12;63.02
55456;BME280;63021;52.836;6.376;2023-02-26T03:22:31;102253.00;;;-1.25;63.34
55456;BME280;63021;52.836;6.376;2023-02-26T03:36:35;102259.44;;;-1.40;63.14
55456;BME280;63021;52.836;6.376;2023-02-26T03:44:38;102273.44;;;-1.42;63.62
55456;BME280;63021;52.836;6.376;2023-02-26T03:47:11;102271.81;;;-1.48;63.91
55456;BME280;63021;52.836;6.376;2023-02-26T03:49:45;102301.56;;;-1.55;63.71
55456;BME280;63021;52.836;6.376;2023-02-26T03:52:13;102296.19;;;-1.47;63.49
55456;BME280;63021;52.836;6.376;2023-02-26T03:54:48;102288.41;;;-1.50;63.77
55456;BME280;63021;52.836;6.376;2023-02-26T03:57:18;102277.25;;;-1.59;63.67
55456;BME280;63021;52.836;6.376;2023-02-26T03:59:46;102302.47;;;-1.56;63.99
55456;BME280;63021;52.836;6.376;2023-02-26T04:02:42;102305.97;;;-1.57;64.09
55456;BME280;63021;52.836;6.376;2023-02-26T04:05:43;102314.69;;;-1.57;63.56
55456;BME280;63021;52.836;6.376;2023-02-26T04:08:12;102322.56;;;-1.61;63.91
55456;BME280;63021;52.836;6.376;2023-02-26T04:10:59;102313.13;;;-1.67;64.11
55456;BME280;63021;52.836;6.376;2023-02-26T04:13:31;102312.34;;;-1.70;64.22
55456;BME280;63021;52.836;6.376;2023-02-26T04:15:58;102304.66;;;-1.78;63.90
55456;BME280;63021;52.836;6.376;2023-02-26T04:18:23;102297.91;;;-1.88;63.78
55456;BME280;63021;52.836;6.376;2023-02-26T04:20:49;102298.81;;;-1.89;64.07
55456;BME280;63021;52.836;6.376;2023-02-26T04:23:20;102304.91;;;-1.90;64.00
55456;BME280;63021;52.836;6.376;2023-02-26T04:25:46;102336.91;;;-1.81;63.96
55456;BME280;63021;52.836;6.376;2023-02-26T04:28:11;102329.97;;;-1.82;64.06
55456;BME280;63021;52.836;6.376;2023-02-26T04:30:37;102336.84;;;-1.78;64.39
55456;BME280;63021;52.836;6.376;2023-02-26T04:33:05;102343.84;;;-1.80;63.77
55456;BME280;63021;52.836;6.376;2023-02-26T04:35:41;102344.78;;;-1.82;64.30
55456;BME280;63021;52.836;6.376;2023-02-26T04:38:07;102354.34;;;-1.83;64.47
55456;BME280;63021;52.836;6.376;2023-02-26T04:40:32;102344.81;;;-1.84;64.01
55456;BME280;63021;52.836;6.376;2023-02-26T04:42:57;102378.75;;;-1.84;64.35
55456;BME280;63021;52.836;6.376;2023-02-26T04:45:23;102358.72;;;-1.83;64.62
55456;BME280;63021;52.836;6.376;2023-02-26T04:47:48;102383.16;;;-1.87;64.01
55456;BME280;63021;52.836;6.376;2023-02-26T04:50:14;102363.16;;;-1.88;63.88
55456;BME280;63021;52.836;6.376;2023-02-26T04:52:39;102364.88;;;-1.87;64.20
55456;BME280;63021;52.836;6.376;2023-02-26T04:55:05;102367.56;;;-1.90;64.66
55456;BME280;63021;52.836;6.376;2023-02-26T04:57:32;102377.06;;;-1.86;64.21
55456;BME280;63021;52.836;6.376;2023-02-26T04:59:57;102376.19;;;-1.88;64.36
55456;BME280;63021;52.836;6.376;2023-02-26T05:02:22;102383.22;;;-1.90;64.44
55456;BME280;63021;52.836;6.376;2023-02-26T05:04:48;102384.06;;;-1.90;64.07
55456;BME280;63021;52.836;6.376;2023-02-26T05:07:13;102383.28;;;-1.94;64.62
55456;BME280;63021;52.836;6.376;2023-02-26T05:09:39;102396.31;;;-1.94;64.22
55456;BME280;63021;52.836;6.376;2023-02-26T05:12:04;102392.88;;;-1.96;64.62
55456;BME280;63021;52.836;6.376;2023-02-26T05:14:29;102406.81;;;-1.97;64.72
55456;BME280;63021;52.836;6.376;2023-02-26T05:16:55;102421.63;;;-1.99;64.51
55456;BME280;63021;52.836;6.376;2023-02-26T05:19:20;102416.41;;;-1.99;64.49
55456;BME280;63021;52.836;6.376;2023-02-26T05:21:46;102402.53;;;-2.01;64.83
55456;BME280;63021;52.836;6.376;2023-02-26T05:24:13;102419.22;;;-2.10;64.53
55456;BME280;63021;52.836;6.376;2023-02-26T05:26:38;102413.09;;;-2.09;65.12
55456;BME280;63021;52.836;6.376;2023-02-26T05:29:04;102415.78;;;-2.12;64.92
55456;BME280;63021;52.836;6.376;2023-02-26T05:31:29;102415.66;;;-2.04;64.33
55456;BME280;63021;52.836;6.376;2023-02-26T05:33:54;102416.59;;;-2.08;64.77
55456;BME280;63021;52.836;6.376;2023-02-26T05:36:20;102428.69;;;-2.05;64.66
55456;BME280;63021;52.836;6.376;2023-02-26T05:38:45;102439.16;;;-2.07;64.62
55456;BME280;63021;52.836;6.376;2023-02-26T05:41:11;102419.31;;;-2.16;64.98
55456;BME280;63021;52.836;6.376;2023-02-26T05:43:36;102439.16;;;-2.07;64.83
55456;BME280;63021;52.836;6.376;2023-02-26T05:46:01;102439.19;;;-2.09;64.91
55456;BME280;63021;52.836;6.376;2023-02-26T05:48:27;102444.50;;;-2.13;65.30
55456;BME280;63021;52.836;6.376;2023-02-26T05:50:52;102428.00;;;-2.14;65.18
55456;BME280;63021;52.836;6.376;2023-02-26T05:53:18;102434.13;;;-2.16;65.24
55456;BME280;63021;52.836;6.376;2023-02-26T05:55:44;102435.84;;;-2.15;65.65
55456;BME280;63021;52.836;6.376;2023-02-26T05:58:09;102427.16;;;-2.17;65.33
55456;BME280;63021;52.836;6.376;2023-02-26T06:00:35;102447.13;;;-2.15;65.27
55456;BME280;63021;52.836;6.376;2023-02-26T06:03:00;102446.28;;;-2.15;65.29
55456;BME280;63021;52.836;6.376;2023-02-26T06:05:25;102453.25;;;-2.17;65.92
55456;BME280;63021;52.836;6.376;2023-02-26T06:07:51;102482.88;;;-2.18;65.38
55456;BME280;63021;52.836;6.376;2023-02-26T06:10:16;102466.34;;;-2.20;65.87
55456;BME280;63021;52.836;6.376;2023-02-26T06:12:42;102475.97;;;-2.22;65.27
55456;BME280;63021;52.836;6.376;2023-02-26T06:15:08;102473.34;;;-2.22;65.39
55456;BME280;63021;52.836;6.376;2023-02-26T06:17:34;102478.59;;;-2.24;65.78
55456;BME280;63021;52.836;6.376;2023-02-26T06:20:00;102482.13;;;-2.27;66.13
55456;BME280;63021;52.836;6.376;2023-02-26T06:22:27;102489.09;;;-2.29;66.21
55456;BME280;63021;52.836;6.376;2023-02-26T06:24:52;102499.59;;;-2.33;65.88
55456;BME280;63021;52.836;6.376;2023-02-26T06:27:19;102504.78;;;-2.32;66.23
55456;BME280;63021;52.836;6.376;2023-02-26T06:29:44;102510.03;;;-2.33;65.66
55456;BME280;63021;52.836;6.376;2023-02-26T06:32:09;102509.25;;;-2.40;66.13
55456;BME280;63021;52.836;6.376;2023-02-26T06:34:35;102522.22;;;-2.34;65.81
55456;BME280;63021;52.836;6.376;2023-02-26T06:37:00;102515.41;;;-2.42;66.22
55456;BME280;63021;52.836;6.376;2023-02-26T06:39:26;102524.84;;;-2.34;66.08
55456;BME280;63021;52.836;6.376;2023-02-26T06:41:51;102535.28;;;-2.35;65.99
55456;BME280;63021;52.836;6.376;2023-02-26T06:44:16;102533.56;;;-2.38;66.11
55456;BME280;63021;52.836;6.376;2023-02-26T06:46:42;102563.88;;;-2.29;65.78
55456;BME280;63021;52.836;6.376;2023-02-26T06:49:08;102549.06;;;-2.25;65.67
55456;BME280;63021;52.836;6.376;2023-02-26T06:51:33;102549.91;;;-2.23;66.43
55456;BME280;63021;52.836;6.376;2023-02-26T06:53:59;102549.88;;;-2.22;65.73
55456;BME280;63021;52.836;6.376;2023-02-26T06:56:24;102561.13;;;-2.17;65.90
55456;BME280;63021;52.836;6.376;2023-02-26T06:58:50;102555.00;;;-2.17;65.67
55456;BME280;63021;52.836;6.376;2023-02-26T07:01:15;102563.63;;;-2.11;66.39
55456;BME280;63021;52.836;6.376;2023-02-26T07:03:41;102581.88;;;-2.11;66.20
55456;BME280;63021;52.836;6.376;2023-02-26T07:06:07;102573.13;;;-2.05;65.90
55456;BME280;63021;52.836;6.376;2023-02-26T07:08:34;102576.53;;;-2.01;65.94
55456;BME280;63021;52.836;6.376;2023-02-26T07:10:59;102574.78;;;-1.99;66.27
55456;BME280;63021;52.836;6.376;2023-02-26T07:13:25;102605.16;;;-1.95;65.92
55456;BME280;63021;52.836;6.376;2023-02-26T07:15:50;102569.47;;;-1.95;66.28
55456;BME280;63021;52.836;6.376;2023-02-26T07:18:16;102594.56;;;-1.86;65.88
55456;BME280;63021;52.836;6.376;2023-02-26T07:20:42;102599.72;;;-1.83;65.92
55456;BME280;63021;52.836;6.376;2023-02-26T07:23:09;102584.84;;;-1.76;66.03
55456;BME280;63021;52.836;6.376;2023-02-26T07:25:34;102584.66;;;-1.65;65.65
55456;BME280;63021;52.836;6.376;2023-02-26T07:28:01;102585.34;;;-1.54;66.17
55456;BME280;63021;52.836;6.376;2023-02-26T07:30:27;102583.34;;;-1.40;66.27
55456;BME280;63021;52.836;6.376;2023-02-26T07:32:53;102588.28;;;-1.23;65.41
55456;BME280;63021;52.836;6.376;2023-02-26T07:35:18;102595.66;;;-0.98;65.09
55456;BME280;63021;52.836;6.376;2023-02-26T07:37:44;102582.22;;;-0.78;65.09
55456;BME280;63021;52.836;6.376;2023-02-26T07:40:10;102598.41;;;-0.59;65.05
55456;BME280;63021;52.836;6.376;2023-02-26T07:42:36;102590.84;;;-0.32;65.19
55456;BME280;63021;52.836;6.376;2023-02-26T07:45:02;102594.78;;;-0.12;64.89
55456;BME280;63021;52.836;6.376;2023-02-26T07:47:27;102627.53;;;0.06;64.38
55456;BME280;63021;52.836;6.376;2023-02-26T07:49:55;102602.53;;;0.30;64.63
55456;BME280;63021;52.836;6.376;2023-02-26T07:52:20;102620.44;;;0.48;64.06
55456;BME280;63021;52.836;6.376;2023-02-26T07:54:45;102604.16;;;0.70;63.57
55456;BME280;63021;52.836;6.376;2023-02-26T07:57:11;102603.75;;;0.85;64.09
55456;BME280;63021;52.836;6.376;2023-02-26T07:59:36;102608.56;;;1.02;64.14
55456;BME280;63021;52.836;6.376;2023-02-26T08:02:05;102604.50;;;1.22;63.31
55456;BME280;63021;52.836;6.376;2023-02-26T08:04:30;102600.47;;;1.42;63.22
55456;BME280;63021;52.836;6.376;2023-02-26T08:06:58;102601.72;;;1.60;63.13
55456;BME280;63021;52.836;6.376;2023-02-26T08:09:23;102618.63;;;1.79;63.03
55456;BME280;63021;52.836;6.376;2023-02-26T08:11:50;102611.00;;;2.00;62.74
55456;BME280;63021;52.836;6.376;2023-02-26T08:14:15;102606.94;;;2.18;62.38
55456;BME280;63021;52.836;6.376;2023-02-26T08:16:41;102614.28;;;2.35;62.73
55456;BME280;63021;52.836;6.376;2023-02-26T08:19:06;102627.88;;;2.48;62.07
55456;BME280;63021;52.836;6.376;2023-02-26T08:21:36;102616.91;;;2.62;61.87
55456;BME280;63021;52.836;6.376;2023-02-26T08:24:02;102628.13;;;2.67;61.84
55456;BME280;63021;52.836;6.376;2023-02-26T08:26:27;102625.09;;;2.79;62.03
55456;BME280;63021;52.836;6.376;2023-02-26T08:28:53;102628.28;;;2.87;61.57
55456;BME280;63021;52.836;6.376;2023-02-26T08:31:18;102638.56;;;2.95;61.79
55456;BME280;63021;52.836;6.376;2023-02-26T08:33:47;102635.75;;;3.00;61.28
55456;BME280;63021;52.836;6.376;2023-02-26T08:36:15;102659.09;;;3.10;61.36
55456;BME280;63021;52.836;6.376;2023-02-26T08:38:40;102654.06;;;3.28;61.27
55456;BME280;63021;52.836;6.376;2023-02-26T08:41:06;102667.84;;;3.35;60.88
55456;BME280;63021;52.836;6.376;2023-02-26T08:43:32;102649.91;;;3.46;60.15
55456;BME280;63021;52.836;6.376;2023-02-26T08:45:57;102655.75;;;3.54;60.65
55456;BME280;63021;52.836;6.376;2023-02-26T08:48:24;102679.41;;;3.56;60.40
55456;BME280;63021;52.836;6.376;2023-02-26T08:50:49;102670.53;;;3.58;60.34
55456;BME280;63021;52.836;6.376;2023-02-26T08:53:15;102663.59;;;3.56;60.16
55456;BME280;63021;52.836;6.376;2023-02-26T08:55:40;102701.22;;;3.59;60.39
55456;BME280;63021;52.836;6.376;2023-02-26T08:58:06;102697.72;;;3.59;60.26
55456;BME280;63021;52.836;6.376;2023-02-26T09:00:32;102675.75;;;3.60;60.32
55456;BME280;63021;52.836;6.376;2023-02-26T09:02:57;102688.91;;;3.60;59.49
55456;BME280;63021;52.836;6.376;2023-02-26T09:05:23;102704.81;;;3.57;60.17
55456;BME280;63021;52.836;6.376;2023-02-26T09:07:48;102692.38;;;3.60;60.24
55456;BME280;63021;52.836;6.376;2023-02-26T09:10:14;102692.34;;;3.62;59.80
55456;BME280;63021;52.836;6.376;2023-02-26T09:12:40;102694.16;;;3.60;59.83
55456;BME280;63021;52.836;6.376;2023-02-26T09:15:07;102680.03;;;3.62;59.32
55456;BME280;63021;52.836;6.376;2023-02-26T09:17:33;102706.97;;;3.71;59.05
55456;BME280;63021;52.836;6.376;2023-02-26T09:19:59;102708.47;;;3.78;58.92
55456;BME280;63021;52.836;6.376;2023-02-26T09:22:25;102701.22;;;3.83;58.82
55456;BME280;63021;52.836;6.376;2023-02-26T09:24:51;102723.78;;;3.90;58.67
55456;BME280;63021;52.836;6.376;2023-02-26T09:27:16;102693.53;;;4.01;58.66
55456;BME280;63021;52.836;6.376;2023-02-26T09:29:41;102701.22;;;4.07;58.43
55456;BME280;63021;52.836;6.376;2023-02-26T09:32:07;102709.75;;;4.13;57.32
55456;BME280;63021;52.836;6.376;2023-02-26T09:34:34;102712.22;;;4.18;57.57
55456;BME280;63021;52.836;6.376;2023-02-26T09:36:59;102702.22;;;4.26;57.18
55456;BME280;63021;52.836;6.376;2023-02-26T09:39:25;102727.34;;;4.35;56.58
55456;BME280;63021;52.836;6.376;2023-02-26T09:41:53;102713.31;;;4.34;56.26
55456;BME280;63021;52.836;6.376;2023-02-26T09:44:31;102715.28;;;4.29;55.34
55456;BME280;63021;52.836;6.376;2023-02-26T09:47:20;102746.44;;;4.20;54.34
55456;BME280;63021;52.836;6.376;2023-02-26T09:50:01;102719.56;;;4.10;54.26
55456;BME280;63021;52.836;6.376;2023-02-26T09:55:35;102734.00;;;3.99;53.86
55456;BME280;63021;52.836;6.376;2023-02-26T09:58:08;102741.22;;;3.94;54.40
55456;BME280;63021;52.836;6.376;2023-02-26T10:03:25;102732.50;;;3.92;54.51
55456;BME280;63021;52.836;6.376;2023-02-26T10:14:11;102753.13;;;4.05;54.55
55456;BME280;63021;52.836;6.376;2023-02-26T10:16:42;102755.75;;;4.05;54.10
55456;BME280;63021;52.836;6.376;2023-02-26T10:19:17;102750.72;;;3.98;54.13
55456;BME280;63021;52.836;6.376;2023-02-26T10:21:48;102748.81;;;4.02;54.27
55456;BME280;63021;52.836;6.376;2023-02-26T10:24:24;102763.66;;;4.05;55.01
55456;BME280;63021;52.836;6.376;2023-02-26T10:27:05;102770.38;;;4.13;53.63
55456;BME280;63021;52.836;6.376;2023-02-26T10:29:43;102770.38;;;4.13;54.07
55456;BME280;63021;52.836;6.376;2023-02-26T10:32:27;102773.81;;;4.15;53.53
55456;BME280;63021;52.836;6.376;2023-02-26T10:35:11;102766.81;;;4.14;54.59
55456;BME280;63021;52.836;6.376;2023-02-26T10:38:15;102775.38;;;4.21;54.08
55456;BME280;63021;52.836;6.376;2023-02-26T10:43:12;102779.75;;;4.21;54.04
55456;BME280;63021;52.836;6.376;2023-02-26T10:49:08;102771.78;;;4.22;53.90
55456;BME280;63021;52.836;6.376;2023-02-26T10:51:38;102784.91;;;4.24;53.63
55456;BME280;63021;52.836;6.376;2023-02-26T10:56:39;102782.00;;;4.31;53.83
55456;BME280;63021;52.836;6.376;2023-02-26T10:59:05;102777.69;;;4.29;53.55
55456;BME280;63021;52.836;6.376;2023-02-26T11:01:30;102792.44;;;4.34;53.18
55456;BME280;63021;52.836;6.376;2023-02-26T11:04:00;102786.31;;;4.34;52.67
55456;BME280;63021;52.836;6.376;2023-02-26T11:06:33;102793.28;;;4.35;52.86
55456;BME280;63021;52.836;6.376;2023-02-26T11:09:00;102789.66;;;4.38;52.97
55456;BME280;63021;52.836;6.376;2023-02-26T11:14:15;102785.88;;;4.45;53.51
55456;BME280;63021;52.836;6.376;2023-02-26T11:16:47;102787.53;;;4.47;52.65
55456;BME280;63021;52.836;6.376;2023-02-26T11:19:14;102789.22;;;4.50;53.05
55456;BME280;63021;52.836;6.376;2023-02-26T11:21:43;102803.88;;;4.57;52.95
55456;BME280;63021;52.836;6.376;2023-02-26T11:24:18;102791.34;;;4.62;52.70
55456;BME280;63021;52.836;6.376;2023-02-26T11:26:47;102774.75;;;4.60;51.94
55456;BME280;63021;52.836;6.376;2023-02-26T11:29:16;102799.03;;;4.68;52.15
55456;BME280;63021;52.836;6.376;2023-02-26T11:31:42;102792.66;;;4.74;52.18
55456;BME280;63021;52.836;6.376;2023-02-26T11:34:11;102792.47;;;4.79;52.30
55456;BME280;63021;52.836;6.376;2023-02-26T11:36:39;102785.22;;;4.84;52.29
55456;BME280;63021;52.836;6.376;2023-02-26T11:39:19;102787.50;;;4.93;52.15
55456;BME280;63021;52.836;6.376;2023-02-26T11:41:48;102798.72;;;4.98;52.39
55456;BME280;63021;52.836;6.376;2023-02-26T11:44:37;102791.41;;;5.05;52.40
55456;BME280;63021;52.836;6.376;2023-02-26T11:47:13;102792.88;;;5.12;51.85
55456;BME280;63021;52.836;6.376;2023-02-26T11:49:51;102789.88;;;5.22;52.14
55456;BME280;63021;52.836;6.376;2023-02-26T11:52:28;102792.06;;;5.32;52.45
55456;BME280;63021;52.836;6.376;2023-02-26T11:55:03;102787.31;;;5.41;52.18
55456;BME280;63021;52.836;6.376;2023-02-26T11:57:30;102790.50;;;5.49;52.36
55456;BME280;63021;52.836;6.376;2023-02-26T12:00:00;102791.00;;;5.57;52.31
55456;BME280;63021;52.836;6.376;2023-02-26T12:02:41;102793.03;;;5.71;51.73
55456;BME280;63021;52.836;6.376;2023-02-26T12:05:10;102779.34;;;5.82;51.56
55456;BME280;63021;52.836;6.376;2023-02-26T12:07:39;102779.88;;;5.90;51.83
55456;BME280;63021;52.836;6.376;2023-02-26T12:10:24;102776.78;;;6.01;51.13
55456;BME280;63021;52.836;6.376;2023-02-26T12:13:03;102775.59;;;6.08;50.70
55456;BME280;63021;52.836;6.376;2023-02-26T12:15:36;102780.72;;;6.11;50.38
55456;BME280;63021;52.836;6.376;2023-02-26T12:24:03;102782.44;;;6.31;48.97
55456;BME280;63021;52.836;6.376;2023-02-26T12:29:46;102780.38;;;6.38;49.73
55456;BME280;63021;52.836;6.376;2023-02-26T12:43:37;102767.81;;;6.80;50.34
55456;BME280;63021;52.836;6.376;2023-02-26T13:02:23;102766.13;;;6.59;48.47
55456;BME280;63021;52.836;6.376;2023-02-26T13:17:16;102794.81;;;6.50;49.09
55456;BME280;63021;52.836;6.376;2023-02-26T13:19:49;102782.88;;;6.41;49.08
55456;BME280;63021;52.836;6.376;2023-02-26T13:22:25;102800.53;;;6.40;49.04
55456;BME280;63021;52.836;6.376;2023-02-26T13:25:03;102782.97;;;6.39;49.88
55456;BME280;63021;52.836;6.376;2023-02-26T13:27:33;102778.59;;;6.38;48.63
55456;BME280;63021;52.836;6.376;2023-02-26T13:32:53;102779.38;;;6.40;48.63
55456;BME280;63021;52.836;6.376;2023-02-26T13:35:24;102763.34;;;6.44;48.58
55456;BME280;63021;52.836;6.376;2023-02-26T13:37:56;102769.72;;;6.39;48.38
55456;BME280;63021;52.836;6.376;2023-02-26T13:40:38;102776.63;;;6.42;47.64
55456;BME280;63021;52.836;6.376;2023-02-26T13:46:16;102773.06;;;6.43;48.90
55456;BME280;63021;52.836;6.376;2023-02-26T13:49:06;102784.50;;;6.44;48.36
55456;BME280;63021;52.836;6.376;2023-02-26T13:51:34;102783.88;;;6.38;48.20
55456;BME280;63021;52.836;6.376;2023-02-26T14:09:43;102784.88;;;5.98;50.48
55456;BME280;63021;52.836;6.376;2023-02-26T14:17:37;102786.03;;;5.90;50.83
55456;BME280;63021;52.836;6.376;2023-02-26T14:20:25;102787.81;;;5.90;51.04
55456;BME280;63021;52.836;6.376;2023-02-26T14:23:12;102790.66;;;5.85;51.16
55456;BME280;63021;52.836;6.376;2023-02-26T14:25:50;102787.41;;;5.79;50.78
55456;BME280;63021;52.836;6.376;2023-02-26T14:31:15;102805.97;;;5.77;50.93
55456;BME280;63021;52.836;6.376;2023-02-26T14:36:47;102797.59;;;5.67;50.64
55456;BME280;63021;52.836;6.376;2023-02-26T14:39:38;102795.16;;;5.63;50.74
55456;BME280;63021;52.836;6.376;2023-02-26T14:42:10;102787.38;;;5.60;50.93
55456;BME280;63021;52.836;6.376;2023-02-26T14:44:42;102793.47;;;5.62;51.69
55456;BME280;63021;52.836;6.376;2023-02-26T14:47:09;102791.53;;;5.65;51.94
55456;BME280;63021;52.836;6.376;2023-02-26T14:49:38;102796.81;;;5.65;50.95
55456;BME280;63021;52.836;6.376;2023-02-26T14:52:35;102802.25;;;5.62;51.53
55456;BME280;63021;52.836;6.376;2023-02-26T14:55:17;102794.69;;;5.53;51.04
55456;BME280;63021;52.836;6.376;2023-02-26T14:57:56;102800.38;;;5.44;51.45
55456;BME280;63021;52.836;6.376;2023-02-26T15:06:21;102794.81;;;5.29;50.94
55456;BME280;63021;52.836;6.376;2023-02-26T15:09:00;102796.00;;;5.22;51.30
55456;BME280;63021;52.836;6.376;2023-02-26T15:20:21;102793.22;;;5.05;52.51
55456;BME280;63021;52.836;6.376;2023-02-26T15:25:48;102800.56;;;4.96;52.27
55456;BME280;63021;52.836;6.376;2023-02-26T15:28:26;102798.31;;;4.87;52.46
55456;BME280;63021;52.836;6.376;2023-02-26T15:30:53;102791.56;;;4.80;52.49
55456;BME280;63021;52.836;6.376;2023-02-26T15:33:21;102794.25;;;4.78;52.83
55456;BME280;63021;52.836;6.376;2023-02-26T15:35:48;102813.66;;;4.77;52.36
55456;BME280;63021;52.836;6.376;2023-02-26T15:38:16;102809.34;;;4.75;53.04
55456;BME280;63021;52.836;6.376;2023-02-26T15:40:42;102812.25;;;4.68;52.65
55456;BME280;63021;52.836;6.376;2023-02-26T15:43:15;102815.91;;;4.64;52.53
55456;BME280;63021;52.836;6.376;2023-02-26T15:45:45;102810.91;;;4.57;52.22
55456;BME280;63021;52.836;6.376;2023-02-26T15:48:40;102816.13;;;4.58;52.75
55456;BME280;63021;52.836;6.376;2023-02-26T15:51:08;102821.66;;;4.52;52.59
55456;BME280;63021;52.836;6.376;2023-02-26T15:53:37;102819.38;;;4.43;52.66
55456;BME280;63021;52.836;6.376;2023-02-26T15:56:08;102820.28;;;4.42;52.51
55456;BME280;63021;52.836;6.376;2023-02-26T15:58:43;102826.59;;;4.38;52.16
55456;BME280;63021;52.836;6.376;2023-02-26T16:01:14;102829.34;;;4.34;52.55
55456;BME280;63021;52.836;6.376;2023-02-26T16:03:41;102806.06;;;4.22;52.63
55456;BME280;63021;52.836;6.376;2023-02-26T16:06:11;102818.34;;;4.23;53.33